Adrian, Texas
Current Conditions -  °F | °C
As of 8:15 AM on Friday 19 Dec 2014 (Local Time) from KHRX Reporting Station
Haze Haze  
Wind Chill: 37°   Ceiling: 300
Heat Index: 37°   Visibility: 1.2mi
Dew Point: 37°   Wind: 3mph
Humidity: 99%   Direction: 260°W
Pressure: 30.14"   Gusts: NA
Location:  35.27°N, 102.67°W
Report Text: KHRX 191415Z AUTO 26003KT 1 1/4SM BR OVC003 03/03 A3014 RMK AO2 T00300029
Loading
Personal Weather Stations






























Interactive Weather Map New forecast layout! Learn more

10-Day Weather Forecast

Advertisements
Track Severe Weather on mobile